Time;durP1;ratioP1;P1;durP2;ratioP2;P2;SDS_P1;SDS_P2;PMS_P1;PMS_P2;Temp;Humidity;BMP_temperature;BMP_pressure;BME280_temperature;BME280_humidity;BME280_pressure;Samples;Min_cycle;Max_cycle;Signal;HPM_P1;HPM_P2
2023/07/07 00:00:15;;;;;;;1.90;1.80;;;;;;;24.80;54.00;97747.25;5037276;28;20232;-39
2023/07/07 00:02:42;;;;;;;1.50;1.40;;;;;;;24.76;54.13;97745.47;5034133;28;20202;-52
2023/07/07 00:05:08;;;;;;;1.70;1.60;;;;;;;24.74;53.88;97750.59;5038601;28;20223;-38
2023/07/07 00:07:35;;;;;;;1.60;1.50;;;;;;;24.73;54.29;97753.13;5035603;28;20208;-34
2023/07/07 00:10:01;;;;;;;1.73;1.63;;;;;;;24.59;54.09;97733.94;5036457;28;20209;-41
2023/07/07 00:12:30;;;;;;;1.60;1.50;;;;;;;24.68;54.41;97749.59;5034653;28;20248;-47
2023/07/07 00:14:56;;;;;;;1.60;1.50;;;;;;;24.56;53.94;97737.31;5028761;28;20236;-42
2023/07/07 00:17:24;;;;;;;1.60;1.50;;;;;;;24.64;54.58;97758.03;5037164;28;20235;-44
2023/07/07 00:19:51;;;;;;;1.70;1.60;;;;;;;24.63;54.27;97754.59;5034719;28;20652;-45
2023/07/07 00:22:18;;;;;;;1.50;1.40;;;;;;;24.63;54.23;97753.75;5038460;28;20228;-47
2023/07/07 00:24:45;;;;;;;1.77;1.40;;;;;;;24.61;54.47;97753.72;5033678;28;20213;-48
2023/07/07 00:27:11;;;;;;;1.57;1.47;;;;;;;24.64;54.51;97758.94;5031610;28;20321;-42
2023/07/07 00:29:38;;;;;;;1.73;1.63;;;;;;;24.64;54.42;97752.91;5040037;28;20232;-45
2023/07/07 00:32:05;;;;;;;1.63;1.53;;;;;;;24.66;54.50;97757.25;5032705;28;20218;-47
2023/07/07 00:34:31;;;;;;;1.43;1.33;;;;;;;24.65;54.18;97752.09;5038850;28;20244;-38
2023/07/07 00:36:58;;;;;;;1.60;1.50;;;;;;;24.68;54.54;97767.56;5019585;28;20277;-37
2023/07/07 00:39:24;;;;;;;1.60;1.50;;;;;;;24.69;54.50;97766.75;5004685;28;20256;-56
2023/07/07 00:41:51;;;;;;;1.67;1.57;;;;;;;24.71;53.98;97767.63;5022178;28;20240;-40
2023/07/07 00:44:17;;;;;;;1.50;1.40;;;;;;;24.72;54.39;97766.81;5014476;28;20217;-50
2023/07/07 00:46:44;;;;;;;1.57;1.47;;;;;;;24.71;54.77;97763.38;5005117;28;20230;-53
2023/07/07 00:49:14;;;;;;;1.70;1.60;;;;;;;24.74;53.96;97768.59;5008160;28;20207;-38
2023/07/07 00:51:50;;;;;;;1.70;1.60;;;;;;;24.73;54.36;97768.56;5003605;28;20320;-47
2023/07/07 00:54:21;;;;;;;1.80;1.70;;;;;;;24.71;53.94;97760.81;4990999;28;20202;-43
2023/07/07 00:56:49;;;;;;;1.50;1.40;;;;;;;24.77;54.32;97771.22;4985145;28;20239;-47
2023/07/07 00:59:21;;;;;;;1.67;1.57;;;;;;;24.79;54.01;97768.69;4993106;28;20210;-45
2023/07/07 01:01:51;;;;;;;1.60;1.50;;;;;;;24.72;53.82;97757.38;5015584;28;20250;-36
2023/07/07 01:04:17;;;;;;;1.57;1.47;;;;;;;24.78;54.26;97764.38;5000799;28;20577;-44
2023/07/07 01:06:49;;;;;;;1.53;1.43;;;;;;;24.81;54.02;97767.00;5022081;28;20222;-51
2023/07/07 01:09:15;;;;;;;1.43;1.33;;;;;;;24.77;53.78;97758.38;5001183;28;20207;-46
2023/07/07 01:11:42;;;;;;;1.70;1.60;;;;;;;24.80;53.87;97762.69;5021795;28;20214;-47
2023/07/07 01:14:15;;;;;;;1.90;1.80;;;;;;;24.79;53.98;97755.81;4988364;28;20206;-44
2023/07/07 01:16:46;;;;;;;1.70;1.60;;;;;;;24.84;53.81;97772.22;5022007;28;20222;-50
2023/07/07 01:19:26;;;;;;;1.50;1.40;;;;;;;24.84;54.26;97770.50;5016530;28;20210;-43
2023/07/07 01:22:30;;;;;;;1.70;1.60;;;;;;;24.84;53.72;97773.06;5013884;28;20256;-49
2023/07/07 01:25:22;;;;;;;1.80;1.70;;;;;;;24.86;53.99;97778.22;5017943;28;20198;-45
2023/07/07 01:28:31;;;;;;;1.60;1.50;;;;;;;24.86;54.22;97776.53;5013541;28;20199;-46
2023/07/07 01:31:06;;;;;;;1.60;1.50;;;;;;;24.87;53.80;97777.41;5015092;28;20198;-40
2023/07/07 01:33:32;;;;;;;1.60;1.50;;;;;;;24.80;53.90;97760.13;5013159;28;20222;-43
2023/07/07 01:35:59;;;;;;;1.40;1.30;;;;;;;24.87;54.16;97780.00;4983040;28;20285;-42
2023/07/07 01:38:31;;;;;;;1.60;1.50;;;;;;;24.77;53.78;97754.91;5010644;28;20233;-44
2023/07/07 01:41:06;;;;;;;1.90;1.80;;;;;;;24.84;54.10;97779.94;5014999;28;20602;-45
2023/07/07 01:43:43;;;;;;;1.70;1.60;;;;;;;24.81;53.95;97777.28;5004144;28;20194;-46
2023/07/07 01:46:29;;;;;;;1.50;1.40;;;;;;;24.77;54.14;97776.34;5015752;28;20226;-42
2023/07/07 01:48:57;;;;;;;1.70;1.60;;;;;;;24.75;54.07;97774.59;5019260;28;20195;-39
2023/07/07 01:51:27;;;;;;;1.70;1.60;;;;;;;24.72;54.42;97775.38;5000016;28;20207;-46
2023/07/07 01:53:53;;;;;;;1.70;1.60;;;;;;;24.68;54.38;97776.16;4987533;28;20579;-47
2023/07/07 01:56:22;;;;;;;1.60;1.50;;;;;;;24.60;54.61;97763.97;4984486;28;20225;-43
2023/07/07 01:58:48;;;;;;;1.60;1.50;;;;;;;24.66;54.67;97782.13;5003398;28;20273;-45
2023/07/07 02:01:15;;;;;;;1.63;1.53;;;;;;;24.64;54.81;97786.31;5003861;28;20202;-58
2023/07/07 02:03:42;;;;;;;1.60;1.50;;;;;;;24.61;54.37;97782.00;5002837;28;20210;-47
2023/07/07 02:06:08;;;;;;;1.70;1.60;;;;;;;24.58;54.49;97779.34;5012566;28;20226;-49
2023/07/07 02:08:35;;;;;;;1.57;1.47;;;;;;;24.61;54.94;97783.69;5020031;28;20488;-40
2023/07/07 02:11:01;;;;;;;1.60;1.50;;;;;;;24.58;54.69;97775.91;5019604;28;20650;-44
2023/07/07 02:13:28;;;;;;;1.57;1.47;;;;;;;24.61;54.50;97784.56;5014078;28;20641;-37
2023/07/07 02:15:55;;;;;;;1.60;1.50;;;;;;;24.61;54.39;97781.13;5020814;28;20229;-34
2023/07/07 02:18:26;;;;;;;1.80;1.70;;;;;;;24.65;54.60;97791.53;5021182;28;20256;-47
2023/07/07 02:20:53;;;;;;;1.73;1.63;;;;;;;24.60;54.84;97784.53;5020971;28;20253;-38
2023/07/07 02:23:20;;;;;;;1.57;1.47;;;;;;;24.66;54.87;97793.25;5021660;28;20274;-37
2023/07/07 02:25:46;;;;;;;1.80;1.70;;;;;;;24.68;54.66;97783.00;5019350;28;20237;-33
2023/07/07 02:28:13;;;;;;;1.90;1.80;;;;;;;24.70;54.33;97789.06;5012144;28;20202;-28
2023/07/07 02:30:40;;;;;;;1.70;1.60;;;;;;;24.71;54.69;97790.78;5012356;28;20199;-29
2023/07/07 02:33:09;;;;;;;1.50;1.40;;;;;;;24.72;54.37;97787.38;5012681;28;20276;-28
2023/07/07 02:35:36;;;;;;;1.60;1.50;;;;;;;24.72;54.73;97793.38;5010082;28;20264;-28
2023/07/07 02:38:02;;;;;;;1.60;1.50;;;;;;;24.74;53.60;97795.97;5012051;28;20221;-34
2023/07/07 02:40:29;;;;;;;1.70;1.60;;;;;;;24.75;54.54;97798.59;5010206;28;20199;-34
2023/07/07 02:42:56;;;;;;;1.53;1.43;;;;;;;24.76;54.05;97802.91;5011959;28;20203;-33
2023/07/07 02:45:23;;;;;;;1.83;1.73;;;;;;;24.77;54.49;97793.47;5006324;28;20558;-28
2023/07/07 02:47:49;;;;;;;1.70;1.60;;;;;;;24.78;54.14;97793.50;5010857;28;20234;-35
2023/07/07 02:50:17;;;;;;;1.60;1.50;;;;;;;24.80;54.53;97796.09;5011510;28;20285;-29
2023/07/07 02:52:44;;;;;;;1.70;1.60;;;;;;;24.80;54.38;97798.69;5010588;28;20437;-29
2023/07/07 02:55:10;;;;;;;1.70;1.60;;;;;;;24.81;54.45;97797.88;5011722;28;20205;-29
2023/07/07 02:57:37;;;;;;;1.60;1.50;;;;;;;24.81;54.10;97798.72;5013698;28;20708;-28
2023/07/07 03:00:08;;;;;;;1.87;1.77;;;;;;;24.82;54.57;97808.19;5015323;28;20205;-36
2023/07/07 03:02:35;;;;;;;1.63;1.53;;;;;;;24.83;54.15;97809.03;5015613;28;20202;-29
2023/07/07 03:05:02;;;;;;;1.70;1.60;;;;;;;24.83;54.43;97799.63;5015667;28;20586;-30
2023/07/07 03:07:29;;;;;;;1.87;1.73;;;;;;;24.84;54.45;97810.78;5015374;28;20218;-32
2023/07/07 03:09:55;;;;;;;1.53;1.43;;;;;;;24.84;54.28;97808.22;5015024;28;20203;-30
2023/07/07 03:12:22;;;;;;;1.53;1.43;;;;;;;24.85;54.31;97808.25;5015619;28;20268;-37
2023/07/07 03:14:52;;;;;;;1.50;1.40;;;;;;;24.86;54.38;97815.09;5008969;28;20734;-30
2023/07/07 03:17:19;;;;;;;1.70;1.60;;;;;;;24.83;53.85;97803.88;5015111;28;20720;-28
2023/07/07 03:19:45;;;;;;;1.50;1.40;;;;;;;24.86;54.25;97809.97;5006230;28;20253;-29
2023/07/07 03:22:12;;;;;;;1.70;1.60;;;;;;;24.85;54.21;97810.81;5009313;28;20202;-28
2023/07/07 03:24:39;;;;;;;1.60;1.50;;;;;;;24.84;54.43;97819.34;5015383;28;20205;-35
2023/07/07 03:27:05;;;;;;;1.60;1.50;;;;;;;24.81;54.34;97815.84;5014848;28;20233;-30
2023/07/07 03:29:32;;;;;;;1.70;1.60;;;;;;;24.76;54.23;97812.31;5015004;28;20249;-28
2023/07/07 03:31:58;;;;;;;1.40;1.30;;;;;;;24.75;54.54;97821.72;5014016;28;20198;-29
2023/07/07 03:34:25;;;;;;;1.67;1.40;;;;;;;24.73;54.49;97818.25;5015067;28;20256;-37
2023/07/07 03:36:52;;;;;;;1.73;1.63;;;;;;;24.70;54.33;97820.78;5014625;28;20222;-35
2023/07/07 03:39:18;;;;;;;2.00;1.50;;;;;;;24.66;54.89;97816.38;5014922;28;20736;-29
2023/07/07 03:41:45;;;;;;;1.50;1.40;;;;;;;24.66;54.51;97830.94;5014791;28;20264;-28
2023/07/07 03:44:12;;;;;;;1.80;1.70;;;;;;;24.64;54.82;97824.88;5015195;28;20256;-32
2023/07/07 03:46:39;;;;;;;1.80;1.70;;;;;;;24.62;54.84;97831.66;5015040;28;20222;-28
2023/07/07 03:49:06;;;;;;;1.60;1.50;;;;;;;24.59;55.03;97824.78;5007441;28;20661;-30
2023/07/07 03:51:35;;;;;;;1.63;1.53;;;;;;;24.60;54.79;97828.22;5014645;28;20194;-28
2023/07/07 03:54:03;;;;;;;1.63;1.53;;;;;;;24.60;54.80;97828.22;5014828;28;20305;-28
2023/07/07 03:56:29;;;;;;;1.77;1.67;;;;;;;24.59;54.60;97819.63;5014738;28;20214;-28
2023/07/07 03:58:56;;;;;;;1.80;1.70;;;;;;;24.61;54.67;97822.22;5014434;28;20256;-32
2023/07/07 04:01:23;;;;;;;1.73;1.60;;;;;;;24.62;55.00;97823.97;5014160;28;20234;-30
2023/07/07 04:03:49;;;;;;;1.80;1.70;;;;;;;24.63;54.88;97836.00;5013957;28;20202;-29
2023/07/07 04:06:17;;;;;;;1.50;1.40;;;;;;;24.61;54.44;97820.53;5014086;28;20773;-28
2023/07/07 04:08:43;;;;;;;1.47;1.37;;;;;;;24.64;54.70;97827.44;5011883;28;20706;-29
2023/07/07 04:11:12;;;;;;;1.60;1.50;;;;;;;24.67;54.88;97831.00;5013988;28;20248;-29
2023/07/07 04:13:39;;;;;;;1.70;1.60;;;;;;;24.67;54.51;97836.13;5013972;28;20264;-27
2023/07/07 04:16:14;;;;;;;1.50;1.40;;;;;;;24.70;54.57;97849.03;5013661;28;20218;-28
2023/07/07 04:18:41;;;;;;;1.67;1.57;;;;;;;24.70;54.39;97843.91;5013789;28;20225;-33
2023/07/07 04:21:13;;;;;;;1.53;1.43;;;;;;;24.72;54.78;97846.50;5013959;28;20206;-28
2023/07/07 04:23:41;;;;;;;1.93;1.70;;;;;;;24.73;54.50;97848.25;5014647;28;20229;-36
2023/07/07 04:26:08;;;;;;;1.77;1.67;;;;;;;24.74;54.45;97848.28;5013591;28;20225;-31
2023/07/07 04:28:36;;;;;;;1.60;1.50;;;;;;;24.75;54.40;97855.13;5014166;28;20205;-28
2023/07/07 04:31:03;;;;;;;1.37;1.27;;;;;;;24.76;54.49;97856.91;5013567;28;20552;-30
2023/07/07 04:33:30;;;;;;;1.60;1.50;;;;;;;24.77;54.40;97870.59;5014000;28;20218;-27
2023/07/07 04:35:58;;;;;;;1.60;1.50;;;;;;;24.78;54.52;97870.63;5013901;28;20228;-30
2023/07/07 04:38:30;;;;;;;1.60;1.50;;;;;;;24.79;54.30;97872.38;5013939;28;20260;-37
2023/07/07 04:41:06;;;;;;;1.93;1.63;;;;;;;24.80;54.37;97876.69;5013580;28;20218;-28
2023/07/07 04:43:33;;;;;;;1.57;1.47;;;;;;;24.78;54.46;97868.06;5013608;28;20633;-29
2023/07/07 04:46:01;;;;;;;1.57;1.47;;;;;;;24.82;54.22;97874.16;5013369;28;20226;-28
2023/07/07 04:48:27;;;;;;;1.50;1.40;;;;;;;24.82;54.34;97877.59;5013296;28;20290;-29
2023/07/07 04:51:03;;;;;;;1.60;1.50;;;;;;;24.83;54.53;97875.88;5013513;28;20206;-28
2023/07/07 04:53:30;;;;;;;1.70;1.60;;;;;;;24.83;54.53;97879.31;5013169;28;20222;-28
2023/07/07 04:56:02;;;;;;;1.57;1.47;;;;;;;24.84;54.66;97881.03;5013352;28;20218;-28
2023/07/07 04:58:28;;;;;;;1.80;1.70;;;;;;;24.81;54.07;97874.97;5013428;28;20570;-33
2023/07/07 05:01:15;;;;;;;1.50;1.40;;;;;;;24.86;54.09;97889.66;5013636;28;20206;-35
2023/07/07 05:03:43;;;;;;;1.60;1.50;;;;;;;24.84;54.33;97883.63;5013322;28;20653;-31
2023/07/07 05:06:10;;;;;;;1.63;1.53;;;;;;;24.85;54.49;97889.63;5013403;28;20308;-31
2023/07/07 05:08:41;;;;;;;1.80;1.70;;;;;;;24.83;54.34;97892.16;5012049;28;20194;-29
2023/07/07 05:11:10;;;;;;;1.60;1.50;;;;;;;24.81;54.50;97895.56;5013489;28;20198;-28
2023/07/07 05:13:36;;;;;;;1.83;1.73;;;;;;;24.78;54.61;97895.50;5013330;28;20218;-29
2023/07/07 05:16:10;;;;;;;1.80;1.70;;;;;;;24.76;54.83;97897.16;5012769;28;20280;-33
2023/07/07 05:18:37;;;;;;;1.70;1.60;;;;;;;24.71;54.49;97897.03;5013006;28;20206;-29
2023/07/07 05:21:04;;;;;;;1.80;1.70;;;;;;;24.70;54.94;97899.56;5012306;28;20610;-28
2023/07/07 05:23:32;;;;;;;1.60;1.50;;;;;;;24.68;54.77;97896.97;5013260;28;20230;-29
2023/07/07 05:25:59;;;;;;;1.80;1.70;;;;;;;24.66;54.80;97896.06;5012893;28;20230;-29
2023/07/07 05:28:26;;;;;;;2.07;1.87;;;;;;;24.65;54.64;97898.59;5012679;28;20205;-28
2023/07/07 05:30:52;;;;;;;1.73;1.63;;;;;;;24.62;54.85;97898.50;5012905;28;20206;-40
2023/07/07 05:33:19;;;;;;;1.63;1.53;;;;;;;24.61;55.15;97902.78;5012941;28;20754;-29
2023/07/07 05:35:47;;;;;;;1.70;1.60;;;;;;;24.60;55.13;97911.31;5012482;28;20712;-29
2023/07/07 05:38:15;;;;;;;1.67;1.57;;;;;;;24.62;54.76;97908.78;5013110;28;20617;-29
2023/07/07 05:40:45;;;;;;;1.80;1.70;;;;;;;24.64;54.88;97909.69;5012561;28;20198;-29
2023/07/07 05:43:15;;;;;;;1.63;1.53;;;;;;;24.64;54.99;97913.13;5004755;28;20195;-28
2023/07/07 05:45:42;;;;;;;1.60;1.50;;;;;;;24.62;54.60;97898.50;5012991;28;20218;-28
2023/07/07 05:48:09;;;;;;;1.70;1.60;;;;;;;24.66;54.98;97905.50;5012509;28;20205;-28
2023/07/07 05:50:36;;;;;;;1.43;1.33;;;;;;;24.64;55.09;97902.84;5005005;28;20681;-27
2023/07/07 05:53:03;;;;;;;1.70;1.60;;;;;;;24.69;54.77;97908.13;4992575;28;20226;-29
2023/07/07 05:55:32;;;;;;;1.67;1.57;;;;;;;24.69;54.52;97918.41;5012583;28;20218;-40
2023/07/07 05:58:00;;;;;;;2.03;1.77;;;;;;;24.69;54.80;97911.53;4991425;28;20203;-29
2023/07/07 06:00:27;;;;;;;1.70;1.60;;;;;;;24.73;54.43;97912.50;5010184;28;20568;-29
2023/07/07 06:02:56;;;;;;;1.70;1.60;;;;;;;24.75;54.82;97919.41;5012551;28;20233;-28
2023/07/07 06:05:23;;;;;;;1.50;1.40;;;;;;;24.76;54.33;97913.44;5012659;28;20205;-29
2023/07/07 06:07:50;;;;;;;1.80;1.70;;;;;;;24.76;54.74;97916.03;5012326;28;20198;-30
2023/07/07 06:10:17;;;;;;;1.60;1.50;;;;;;;24.78;54.83;97918.63;5009647;28;20237;-28
2023/07/07 06:12:44;;;;;;;1.80;1.70;;;;;;;24.79;54.32;97918.66;5011971;28;20198;-29
2023/07/07 06:15:10;;;;;;;2.00;1.73;;;;;;;24.75;54.16;97906.53;5012177;28;20572;-33
2023/07/07 06:17:37;;;;;;;1.63;1.50;;;;;;;24.76;54.47;97910.88;5011944;28;20202;-28
2023/07/07 06:20:04;;;;;;;1.70;1.60;;;;;;;24.78;54.28;97910.91;5009928;28;20206;-30
2023/07/07 06:22:30;;;;;;;1.60;1.50;;;;;;;24.78;54.64;97906.63;5006460;28;20237;-36
2023/07/07 06:24:58;;;;;;;1.60;1.50;;;;;;;24.82;54.18;97912.72;5011118;28;20199;-31
2023/07/07 06:27:24;;;;;;;1.60;1.50;;;;;;;24.84;54.58;97913.63;5004994;28;20222;-28
2023/07/07 06:29:51;;;;;;;1.50;1.40;;;;;;;24.85;54.71;97910.19;5011339;28;20252;-33
2023/07/07 06:32:17;;;;;;;1.57;1.47;;;;;;;24.86;54.42;97911.94;5013293;28;20241;-28
2023/07/07 06:34:44;;;;;;;2.33;1.60;;;;;;;24.86;54.40;97907.66;5015849;28;20735;-28
2023/07/07 06:37:11;;;;;;;2.30;1.60;;;;;;;24.87;54.23;97911.13;5016284;28;20597;-28
2023/07/07 06:39:37;;;;;;;1.70;1.60;;;;;;;24.87;54.55;97914.53;5015842;28;20252;-41
2023/07/07 06:42:04;;;;;;;1.80;1.70;;;;;;;24.88;54.47;97912.84;5015429;28;20285;-28
2023/07/07 06:44:32;;;;;;;1.60;1.50;;;;;;;24.89;54.24;97917.13;5015874;28;20194;-28
2023/07/07 06:46:59;;;;;;;1.60;1.50;;;;;;;24.88;54.52;97907.69;5015685;28;20225;-36
2023/07/07 06:49:26;;;;;;;1.33;1.27;;;;;;;24.87;54.50;97917.09;5015781;28;20242;-33
2023/07/07 06:51:53;;;;;;;1.77;1.60;;;;;;;24.83;54.30;97912.75;5015545;28;20563;-30
2023/07/07 06:54:19;;;;;;;2.27;1.70;;;;;;;24.83;54.12;97920.44;5015680;28;20284;-29
2023/07/07 06:56:46;;;;;;;1.73;1.63;;;;;;;24.81;54.70;97923.84;5015351;28;20237;-40
2023/07/07 06:59:12;;;;;;;1.80;1.70;;;;;;;24.78;54.72;97922.03;5015177;28;20202;-29
2023/07/07 07:01:40;;;;;;;1.40;1.30;;;;;;;24.76;54.73;97920.28;5015615;28;20264;-29
2023/07/07 07:04:06;;;;;;;1.73;1.63;;;;;;;24.74;54.68;97919.38;5015347;28;20202;-36
2023/07/07 07:06:33;;;;;;;1.50;1.40;;;;;;;24.70;54.67;97927.84;5015248;28;20723;-30
2023/07/07 07:09:00;;;;;;;1.50;1.40;;;;;;;24.68;54.61;97929.50;5011739;28;20230;-27
2023/07/07 07:11:26;;;;;;;1.60;1.50;;;;;;;24.66;55.06;97926.06;5015577;28;20206;-35
2023/07/07 07:13:53;;;;;;;1.70;1.60;;;;;;;24.63;54.59;97933.66;5015669;28;20269;-35
2023/07/07 07:16:19;;;;;;;1.40;1.30;;;;;;;24.64;54.92;97936.25;5014663;28;20739;-29
2023/07/07 07:18:46;;;;;;;1.50;1.40;;;;;;;24.64;55.14;97932.81;5011212;28;20248;-28
2023/07/07 07:21:13;;;;;;;1.40;1.30;;;;;;;24.64;54.94;97930.25;5015439;28;20676;-29
2023/07/07 07:23:39;;;;;;;1.70;1.60;;;;;;;24.65;54.64;97937.16;5015316;28;20222;-35
2023/07/07 07:26:06;;;;;;;1.50;1.40;;;;;;;24.65;54.76;97942.28;5015167;28;20241;-29
2023/07/07 07:28:33;;;;;;;1.60;1.50;;;;;;;24.65;54.85;97942.28;5015208;28;20198;-28
2023/07/07 07:30:59;;;;;;;1.40;1.30;;;;;;;24.68;54.69;97940.66;5015033;28;20234;-28
2023/07/07 07:33:26;;;;;;;1.50;1.40;;;;;;;24.67;54.90;97938.06;5007884;28;20257;-29
2023/07/07 07:35:53;;;;;;;1.67;1.57;;;;;;;24.70;54.79;97935.56;4997856;28;20223;-29
2023/07/07 07:38:22;;;;;;;1.67;1.57;;;;;;;24.71;54.77;97937.28;5014803;28;20202;-37
2023/07/07 07:40:52;;;;;;;1.63;1.53;;;;;;;24.72;54.55;97942.47;5015289;28;20248;-28
2023/07/07 07:43:20;;;;;;;2.10;1.77;;;;;;;24.74;54.76;97938.25;5014975;28;20245;-36
2023/07/07 07:45:46;;;;;;;1.67;1.57;;;;;;;24.75;54.64;97941.69;5015098;28;20225;-33
2023/07/07 07:48:13;;;;;;;1.50;1.40;;;;;;;24.77;54.70;97934.84;5008424;28;20206;-29
2023/07/07 07:50:40;;;;;;;1.40;1.30;;;;;;;24.77;54.58;97933.16;5015196;28;20676;-29
2023/07/07 07:53:06;;;;;;;1.50;1.40;;;;;;;24.78;54.52;97941.75;5014698;28;20268;-33
2023/07/07 07:55:33;;;;;;;1.57;1.47;;;;;;;24.80;54.45;97940.06;5014902;28;20759;-30
2023/07/07 07:57:59;;;;;;;1.90;1.70;;;;;;;24.80;54.28;97943.53;4997248;28;20665;-30
2023/07/07 08:00:26;;;;;;;1.50;1.40;;;;;;;24.82;54.70;97944.44;5006901;28;20210;-28
2023/07/07 08:02:53;;;;;;;1.63;1.53;;;;;;;24.83;54.10;97947.84;5014954;28;20498;-29
2023/07/07 08:05:19;;;;;;;1.50;1.40;;;;;;;24.83;54.27;97946.16;5014247;28;20202;-31
2023/07/07 08:07:46;;;;;;;1.40;1.30;;;;;;;24.84;54.46;97944.47;5014692;28;20673;-30
2023/07/07 08:10:13;;;;;;;1.60;1.50;;;;;;;24.85;54.08;97939.38;5010743;28;20573;-29
2023/07/07 08:12:39;;;;;;;1.40;1.30;;;;;;;24.85;54.16;97936.78;5014484;28;20245;-30
2023/07/07 08:15:06;;;;;;;1.20;1.20;;;;;;;24.84;54.04;97932.47;5005487;28;20256;-33
2023/07/07 08:17:33;;;;;;;1.40;1.30;;;;;;;24.87;54.24;97937.66;5013861;28;20202;-28
2023/07/07 08:19:59;;;;;;;1.47;1.37;;;;;;;24.88;54.45;97938.56;5013939;28;20198;-31
2023/07/07 08:22:26;;;;;;;1.40;1.30;;;;;;;24.89;54.03;97940.28;5014229;28;20332;-35
2023/07/07 08:24:54;;;;;;;1.60;1.50;;;;;;;24.89;54.04;97940.28;5014152;28;20206;-28
2023/07/07 08:27:21;;;;;;;1.20;1.20;;;;;;;24.90;54.39;97939.47;5014093;28;20230;-29
2023/07/07 08:29:51;;;;;;;1.50;1.40;;;;;;;24.85;54.11;97936.78;5013682;28;20210;-28
2023/07/07 08:32:21;;;;;;;1.20;1.20;;;;;;;24.89;54.02;97941.16;5011441;28;20206;-36
2023/07/07 08:34:48;;;;;;;1.50;1.40;;;;;;;24.87;54.45;97937.66;5011501;28;20222;-28
2023/07/07 08:37:21;;;;;;;1.40;1.30;;;;;;;24.83;54.32;97945.28;5013608;28;20222;-40
2023/07/07 08:39:49;;;;;;;1.53;1.43;;;;;;;24.83;53.97;97950.44;5014211;28;20210;-28
2023/07/07 08:42:19;;;;;;;1.63;1.53;;;;;;;24.80;54.17;97940.06;5014080;28;20260;-28
2023/07/07 08:44:46;;;;;;;1.50;1.40;;;;;;;24.77;54.09;97946.03;5014080;28;20210;-28
2023/07/07 08:47:18;;;;;;;1.30;1.30;;;;;;;24.75;54.59;97936.53;4980392;28;20226;-28
2023/07/07 08:49:55;;;;;;;1.37;1.27;;;;;;;24.72;54.45;97932.19;4980480;28;20202;-29
2023/07/07 08:52:38;;;;;;;1.53;1.43;;;;;;;24.65;54.66;97932.00;4981309;28;20252;-30
2023/07/07 08:55:11;;;;;;;1.40;1.30;;;;;;;24.69;54.49;97938.97;4996956;28;20253;-32
2023/07/07 08:57:44;;;;;;;1.60;1.50;;;;;;;24.66;54.59;97931.19;5006687;28;20202;-28
2023/07/07 09:00:21;;;;;;;1.40;1.30;;;;;;;24.65;54.56;97935.47;4980513;28;20255;-28
2023/07/07 09:03:07;;;;;;;1.43;1.33;;;;;;;24.65;54.80;97938.03;4997030;28;20695;-35
2023/07/07 09:05:52;;;;;;;1.30;1.20;;;;;;;24.65;54.88;97934.56;4975630;28;20741;-28
2023/07/07 09:08:34;;;;;;;1.40;1.30;;;;;;;24.66;54.76;97931.19;5013811;28;20256;-28
2023/07/07 09:11:38;;;;;;;1.43;1.33;;;;;;;24.66;54.49;97924.34;5011896;28;20244;-28
2023/07/07 09:14:05;;;;;;;1.13;1.13;;;;;;;24.67;54.74;97936.38;4995951;28;20770;-29
2023/07/07 09:16:34;;;;;;;1.10;1.10;;;;;;;24.69;54.58;97934.69;4992917;28;20222;-38
2023/07/07 09:19:10;;;;;;;1.40;1.30;;;;;;;24.70;54.31;97927.84;5013528;28;20615;-28
2023/07/07 09:21:47;;;;;;;1.40;1.30;;;;;;;24.65;54.32;97917.47;4980690;28;20256;-29
2023/07/07 09:24:32;;;;;;;1.07;1.07;;;;;;;24.65;54.40;97909.75;4980310;28;20248;-29
2023/07/07 09:27:06;;;;;;;1.20;1.20;;;;;;;24.67;54.34;97912.34;4992313;28;20239;-35
2023/07/07 09:29:33;;;;;;;1.37;1.27;;;;;;;24.76;54.39;97913.44;4991981;28;20268;-40
2023/07/07 09:32:02;;;;;;;1.20;1.20;;;;;;;24.75;54.64;97913.41;5013540;28;20244;-32
2023/07/07 09:34:30;;;;;;;1.30;1.20;;;;;;;24.78;54.14;97924.59;4995946;28;20221;-31
2023/07/07 09:37:34;;;;;;;1.40;1.30;;;;;;;24.79;54.23;97918.66;4991990;28;20223;-28
2023/07/07 09:40:19;;;;;;;1.40;1.30;;;;;;;24.80;54.16;97927.22;5011315;28;20197;-29
2023/07/07 09:43:04;;;;;;;1.40;1.30;;;;;;;24.82;54.07;97928.13;4988948;28;20209;-27
2023/07/07 09:45:39;;;;;;;1.23;1.23;;;;;;;24.82;54.22;97923.88;5010699;28;20265;-28
2023/07/07 09:48:33;;;;;;;1.10;1.10;;;;;;;24.83;54.43;97922.16;5012991;28;20210;-29
2023/07/07 09:51:08;;;;;;;1.10;1.10;;;;;;;24.83;54.05;97920.44;4990486;28;20202;-28
2023/07/07 09:53:36;;;;;;;1.50;1.40;;;;;;;24.85;54.19;97917.91;5000996;28;20248;-31
2023/07/07 09:56:16;;;;;;;1.00;1.00;;;;;;;24.85;54.27;97928.19;4996626;28;20751;-29
2023/07/07 09:58:57;;;;;;;1.33;1.23;;;;;;;24.86;54.08;97917.94;4995260;28;20677;-29
2023/07/07 10:01:28;;;;;;;1.30;1.20;;;;;;;24.87;54.22;97918.81;4995944;28;20256;-29
2023/07/07 10:03:55;;;;;;;1.10;1.10;;;;;;;24.88;54.19;97926.56;4980171;28;20213;-29
2023/07/07 10:06:31;;;;;;;1.23;1.20;;;;;;;24.89;54.30;97919.72;5011961;28;20249;-30
2023/07/07 10:08:59;;;;;;;1.03;1.03;;;;;;;24.88;53.97;97918.88;5012553;28;20269;-29
2023/07/07 10:11:45;;;;;;;1.23;1.20;;;;;;;24.90;54.22;97918.91;5012475;28;20194;-28
2023/07/07 10:14:15;;;;;;;1.07;1.07;;;;;;;24.89;53.99;97917.13;5012386;28;20677;-28
2023/07/07 10:17:10;;;;;;;1.27;1.20;;;;;;;24.88;53.99;97920.56;4994673;28;20223;-30
2023/07/07 10:19:43;;;;;;;1.30;1.20;;;;;;;24.85;54.40;97916.22;5012221;28;20194;-29
2023/07/07 10:22:14;;;;;;;1.10;1.10;;;;;;;24.83;54.46;97909.28;5012874;28;20202;-28
2023/07/07 10:24:43;;;;;;;1.40;1.30;;;;;;;24.80;54.06;97906.66;4993004;28;20194;-29
2023/07/07 10:27:11;;;;;;;1.30;1.20;;;;;;;24.77;54.23;97907.47;5011997;28;20229;-29
2023/07/07 10:29:40;;;;;;;1.20;1.20;;;;;;;24.76;54.36;97912.56;4994652;28;20210;-30
2023/07/07 10:32:17;;;;;;;1.40;1.30;;;;;;;24.73;54.50;97913.38;5012488;28;20210;-28
2023/07/07 10:34:48;;;;;;;1.20;1.17;;;;;;;24.70;54.56;97910.75;5012799;28;20283;-33
2023/07/07 10:37:22;;;;;;;1.10;1.10;;;;;;;24.69;54.33;97908.97;5012645;28;20582;-29
2023/07/07 10:39:53;;;;;;;1.20;1.20;;;;;;;24.67;54.39;97910.66;5012193;28;20290;-28
2023/07/07 10:42:23;;;;;;;1.17;1.17;;;;;;;24.64;54.48;97913.13;5012158;28;20206;-31
2023/07/07 10:44:51;;;;;;;1.23;1.20;;;;;;;24.63;54.43;97902.81;5012260;28;20237;-30
2023/07/07 10:47:19;;;;;;;1.10;1.10;;;;;;;24.61;54.59;97902.78;5012081;28;20265;-29
2023/07/07 10:49:49;;;;;;;1.40;1.30;;;;;;;24.60;54.77;97900.19;5011865;28;20198;-29
2023/07/07 10:52:27;;;;;;;1.20;1.17;;;;;;;24.59;54.77;97899.31;5012454;28;20299;-33
2023/07/07 10:55:19;;;;;;;1.17;1.17;;;;;;;24.57;54.54;97903.53;5012563;28;20254;-28
2023/07/07 10:58:01;;;;;;;1.10;1.10;;;;;;;24.57;54.90;97913.81;5005224;28;20206;-28
2023/07/07 11:00:37;;;;;;;1.10;1.10;;;;;;;24.55;54.79;97907.78;5011654;28;20202;-29
2023/07/07 11:03:15;;;;;;;1.30;1.20;;;;;;;24.55;54.93;97902.63;5012368;28;20210;-28
2023/07/07 11:05:58;;;;;;;1.20;1.20;;;;;;;24.55;54.66;97899.19;5012326;28;20214;-30
2023/07/07 11:09:29;;;;;;;1.10;1.10;;;;;;;24.54;55.03;97900.88;5002905;28;20238;-32
2023/07/07 11:12:31;;;;;;;1.27;1.17;;;;;;;24.52;55.04;97889.72;4994984;28;20257;-30
2023/07/07 11:15:11;;;;;;;1.33;1.27;;;;;;;24.52;54.60;97892.28;4989157;28;20222;-28
2023/07/07 11:18:00;;;;;;;1.00;1.00;;;;;;;24.52;54.78;97889.72;5012362;28;20217;-28
2023/07/07 11:20:32;;;;;;;1.23;1.10;;;;;;;24.51;54.96;97892.25;5015153;28;20206;-29
2023/07/07 11:23:59;;;;;;;1.20;1.10;;;;;;;24.50;54.67;97885.34;5015173;28;20198;-28
2023/07/07 11:26:38;;;;;;;1.10;1.10;;;;;;;24.51;54.86;97887.13;4973450;28;20235;-28
2023/07/07 11:29:11;;;;;;;1.10;1.10;;;;;;;24.50;55.11;97882.78;4974234;28;20219;-29
2023/07/07 11:32:05;;;;;;;1.30;1.20;;;;;;;24.42;54.88;97872.34;4998509;28;20194;-30
2023/07/07 11:34:35;;;;;;;1.10;1.10;;;;;;;24.49;55.03;97887.09;5000109;28;20226;-28
2023/07/07 11:37:12;;;;;;;1.40;1.30;;;;;;;24.49;55.07;97889.66;5009693;28;20257;-28
2023/07/07 11:40:04;;;;;;;1.20;1.20;;;;;;;24.49;54.65;97886.19;4996737;28;20225;-40
2023/07/07 11:43:03;;;;;;;1.13;1.10;;;;;;;24.48;54.84;97885.31;5014750;28;20202;-39
2023/07/07 11:45:48;;;;;;;1.10;1.10;;;;;;;24.47;55.19;97881.03;4987095;28;20218;-29
2023/07/07 11:48:41;;;;;;;1.30;1.20;;;;;;;24.48;54.63;97879.34;5014852;28;20233;-29
2023/07/07 11:51:21;;;;;;;1.17;1.17;;;;;;;24.44;54.63;97864.66;5005230;28;20208;-30